| time (UTC) | temp F | wind direction | speed MPH | gust MPH | rain 1hr in | rain 24hr in | rain mn in | humidity % | barometer mb |
| 20260902224439 | 60 | 236 | 1.0 | 4.0 | 0.00 | 0.32 | 0.32 | 91 | 1008.8 |
| 20260902223938 | 60 | 230 | 1.0 | 5.0 | 0.00 | 0.32 | 0.32 | 92 | 1008.8 |
| 20260902223433 | 60 | 144 | 2.0 | 5.0 | 0.00 | 0.32 | 0.32 | 92 | 1008.8 |
| 20260902222950 | 60 | 252 | 0.0 | 4.0 | 0.00 | 0.32 | 0.32 | 92 | 1008.9 |
| 20260902222449 | 60 | 177 | 0.0 | 2.0 | 0.00 | 0.32 | 0.32 | 93 | 1008.8 |
| 20260902221918 | 60 | 233 | 0.0 | 3.0 | 0.00 | 0.32 | 0.32 | 92 | 1008.8 |
| 20260902221445 | 60 | 259 | 1.0 | 9.0 | 0.01 | 0.32 | 0.32 | 93 | 1008.9 |
| 20260902220922 | 60 | 53 | 1.0 | 6.0 | 0.01 | 0.32 | 0.32 | 93 | 1008.8 |
| 20260902220435 | 60 | 287 | 0.0 | 3.0 | 0.01 | 0.32 | 0.32 | 93 | 1008.8 |
| 20260902215933 | 60 | 81 | 0.0 | 2.0 | 0.01 | 0.32 | 0.32 | 93 | 1008.8 |
| 20260902215440 | 60 | 235 | 0.0 | 2.0 | 0.01 | 0.32 | 0.32 | 93 | 1008.7 |
| 20260902214937 | 60 | 242 | 0.0 | 2.0 | 0.01 | 0.32 | 0.32 | 93 | 1008.7 |
| 20260902214435 | 60 | 269 | 1.0 | 2.0 | 0.01 | 0.32 | 0.32 | 93 | 1008.7 |
| 20260902213934 | 60 | 231 | 0.0 | 1.0 | 0.01 | 0.32 | 0.32 | 93 | 1008.8 |
| 20260902213442 | 60 | 107 | 0.0 | 1.0 | 0.02 | 0.32 | 0.32 | 93 | 1008.7 |
| 20260902212937 | 60 | 223 | 0.0 | 2.0 | 0.02 | 0.32 | 0.32 | 92 | 1008.8 |
| 20260902212436 | 60 | 71 | 0.0 | 2.0 | 0.02 | 0.32 | 0.32 | 92 | 1008.8 |
| 20260902211931 | 60 | 68 | 0.0 | 4.0 | 0.03 | 0.32 | 0.32 | 92 | 1008.8 |
| 20260902211445 | 60 | 141 | 0.0 | 1.0 | 0.04 | 0.31 | 0.31 | 93 | 1008.8 |
| 20260902210924 | 60 | 141 | 0.0 | 5.0 | 0.05 | 0.31 | 0.31 | 93 | 1008.7 |
| 20260902210443 | 59 | 71 | 3.0 | 11.0 | 0.06 | 0.31 | 0.31 | 92 | 1008.7 |
| 20260902205919 | 59 | 238 | 0.0 | 11.0 | 0.07 | 0.31 | 0.31 | 92 | 1008.9 |
| 20260902205417 | 59 | 89 | 1.0 | 6.0 | 0.08 | 0.31 | 0.31 | 93 | 1008.7 |
| 20260902204935 | 59 | 90 | 0.0 | 2.0 | 0.10 | 0.31 | 0.31 | 93 | 1008.8 |
| 20260902204432 | 59 | 102 | 0.0 | 3.0 | 0.11 | 0.31 | 0.31 | 93 | 1008.6 |
| 20260902203936 | 59 | 108 | 1.0 | 5.0 | 0.13 | 0.31 | 0.31 | 92 | 1008.7 |
| 20260902203433 | 59 | 114 | 1.0 | 6.0 | 0.14 | 0.30 | 0.30 | 92 | 1008.4 |
| 20260902202927 | 59 | 61 | 1.0 | 4.0 | 0.16 | 0.30 | 0.30 | 92 | 1008.5 |
| 20260902202423 | 59 | 63 | 1.0 | 7.0 | 0.16 | 0.29 | 0.29 | 92 | 1008.4 |
| 20260902201925 | 59 | 105 | 3.0 | 7.0 | 0.16 | 0.28 | 0.28 | 92 | 1008.4 |
| 20260902201422 | 59 | 82 | 2.0 | 6.0 | 0.16 | 0.27 | 0.27 | 93 | 1008.5 |
| 20260902200934 | 59 | 106 | 2.0 | 6.0 | 0.15 | 0.26 | 0.26 | 93 | 1008.4 |
| 20260902200442 | 59 | 29 | 2.0 | 5.0 | 0.15 | 0.25 | 0.25 | 93 | 1008.4 |
| 20260902195938 | 59 | 70 | 1.0 | 4.0 | 0.15 | 0.24 | 0.24 | 92 | 1008.6 |
| 20260902195435 | 59 | 111 | 2.0 | 3.0 | 0.14 | 0.23 | 0.23 | 92 | 1008.8 |
| 20260902194931 | 59 | 91 | 1.0 | 3.0 | 0.13 | 0.21 | 0.21 | 92 | 1008.8 |
| 20260902194427 | 59 | 84 | 2.0 | 3.0 | 0.12 | 0.20 | 0.20 | 91 | 1008.9 |
| 20260902193928 | 59 | 122 | 1.0 | 2.0 | 0.10 | 0.18 | 0.18 | 91 | 1008.9 |
| 20260902193423 | 59 | 75 | 1.0 | 3.0 | 0.09 | 0.16 | 0.16 | 90 | 1008.9 |
| 20260902192942 | 59 | 96 | 2.0 | 3.0 | 0.07 | 0.14 | 0.14 | 90 | 1008.9 |
| 20260902192438 | 59 | 74 | 2.0 | 5.0 | 0.06 | 0.13 | 0.13 | 90 | 1008.9 |
| 20260902191957 | 59 | 44 | 2.0 | 5.0 | 0.06 | 0.12 | 0.12 | 90 | 1008.9 |
| 20260902191444 | 59 | 96 | 3.0 | 5.0 | 0.05 | 0.11 | 0.11 | 90 | 1008.8 |
| 20260902190921 | 59 | 101 | 1.0 | 3.0 | 0.06 | 0.11 | 0.11 | 90 | 1008.8 |
| 20260902190419 | 59 | 101 | 1.0 | 4.0 | 0.06 | 0.10 | 0.10 | 90 | 1008.7 |
| 20260902185946 | 59 | 125 | 2.0 | 4.0 | 0.06 | 0.09 | 0.09 | 89 | 1008.8 |
| 20260902185439 | 60 | 77 | 1.0 | 4.0 | 0.05 | 0.08 | 0.08 | 89 | 1008.9 |
| 20260902184936 | 60 | 88 | 2.0 | 4.0 | 0.05 | 0.08 | 0.08 | 88 | 1009.0 |
| 20260902184434 | 60 | 97 | 0.0 | 2.0 | 0.06 | 0.08 | 0.08 | 89 | 1009.2 |
| 20260902183933 | 60 | 103 | 1.0 | 4.0 | 0.06 | 0.07 | 0.07 | 89 | 1009.1 |
| 20260902183455 | 60 | 63 | 1.0 | 4.0 | 0.06 | 0.07 | 0.07 | 89 | 1009.3 |
| 20260902182931 | 60 | 61 | 0.0 | 2.0 | 0.06 | 0.07 | 0.07 | 90 | 1009.4 |
| 20260902182427 | 60 | 68 | 1.0 | 2.0 | 0.07 | 0.07 | 0.07 | 90 | 1009.5 |
| 20260902181919 | 60 | 91 | 0.0 | 1.0 | 0.06 | 0.06 | 0.06 | 90 | 1009.7 |
| 20260902181445 | 60 | 269 | 0.0 | 1.0 | 0.06 | 0.06 | 0.06 | 89 | 1009.6 |
| 20260902180939 | 60 | 278 | 0.0 | 3.0 | 0.05 | 0.05 | 0.05 | 88 | 1009.8 |
| 20260902180437 | 60 | 274 | 1.0 | 6.0 | 0.04 | 0.04 | 0.04 | 88 | 1009.7 |
| 20260902175935 | 60 | 297 | 0.0 | 3.0 | 0.03 | 0.03 | 0.03 | 87 | 1009.6 |
| 20260902175432 | 61 | 265 | 0.0 | 3.0 | 0.03 | 0.03 | 0.03 | 85 | 1009.5 |
| 20260902175000 | 61 | 184 | 0.0 | 1.0 | 0.03 | 0.03 | 0.03 | 85 | 1009.5 |
| 20260902174437 | 62 | 181 | 0.0 | 1.0 | 0.02 | 0.02 | 0.02 | 84 | 1009.4 |
| 20260902173934 | 62 | 181 | 0.0 | 1.0 | 0.01 | 0.01 | 0.01 | 81 | 1009.2 |
| 20260902173433 | 63 | 176 | 0.0 | 0.0 | 0.01 | 0.01 | 0.01 | 80 | 1009.3 |
| 20260902172934 | 63 | 172 | 0.0 | 0.0 | 0.01 | 0.01 | 0.01 | 81 | 1009.1 |
| 20260902172431 | 63 | 172 | 0.0 | 0.0 | 0.00 | 0.00 | 0.00 | 80 | 1009.0 |
| 20260902171924 | 64 | 167 | 0.0 | 0.0 | 0.00 | 0.00 | 0.00 | 80 | 1008.9 |
| 20260902171425 | 64 | 167 | 0.0 | 0.0 | 0.00 | 0.00 | 0.00 | 76 | 1008.8 |
| 20260902170923 | 65 | 131 | 0.0 | 0.0 | 0.00 | 0.00 | 0.00 | 78 | 1008.7 |
| 20260902170420 | 65 | 131 | 0.0 | 0.0 | 0.00 | 0.00 | 0.00 | 74 | 1008.7 |
| 20260902165917 | 64 | 131 | 0.0 | 0.0 | 0.00 | 0.00 | 0.00 | 72 | 1008.6 |
| 20260902165434 | 64 | 167 | 0.0 | 0.0 | 0.00 | 0.00 | 0.00 | 72 | 1008.7 |
| 20260902164919 | 65 | 174 | 0.0 | 0.0 | 0.00 | 0.00 | 0.00 | 72 | 1008.6 |
| 20260902164436 | 65 | 177 | 0.0 | 0.0 | 0.00 | 0.00 | 0.00 | 72 | 1008.6 |
| 20260902163944 | 64 | 178 | 0.0 | 0.0 | 0.00 | 0.00 | 0.00 | 73 | 1008.6 |
| 20260902163440 | 64 | 179 | 0.0 | 0.0 | 0.00 | 0.00 | 0.00 | 74 | 1008.6 |
| 20260902162933 | 64 | 179 | 0.0 | 0.0 | 0.00 | 0.00 | 0.00 | 74 | 1008.6 |
| 20260902162450 | 64 | 179 | 0.0 | 0.0 | 0.00 | 0.00 | 0.00 | 73 | 1008.6 |
| 20260902161957 | 64 | 81 | 0.0 | 0.0 | 0.00 | 0.00 | 0.00 | 73 | 1008.6 |
| 20260902161452 | 64 | 92 | 0.0 | 0.0 | 0.00 | 0.00 | 0.00 | 73 | 1008.7 |
| 20260902160958 | 63 | 149 | 0.0 | 1.0 | 0.00 | 0.00 | 0.00 | 74 | 1008.7 |
| 20260902160454 | 63 | 82 | 0.0 | 2.0 | 0.00 | 0.00 | 0.00 | 74 | 1008.8 |
| 20260902155928 | 63 | 82 | 1.0 | 3.0 | 0.00 | 0.00 | 0.00 | 75 | 1008.9 |
| 20260902155428 | 63 | 65 | 0.0 | 3.0 | 0.00 | 0.00 | 0.00 | 75 | 1008.9 |
| 20260902154922 | 62 | 77 | 0.0 | 2.0 | 0.00 | 0.00 | 0.00 | 76 | 1008.9 |
| 20260902154419 | 62 | 107 | 0.0 | 1.0 | 0.00 | 0.00 | 0.00 | 76 | 1009.0 |
| 20260902154005 | 62 | 103 | 0.0 | 1.0 | 0.00 | 0.00 | 0.00 | 76 | 1009.0 |
| 20260902153441 | 62 | 109 | 0.0 | 2.0 | 0.00 | 0.00 | 0.00 | 77 | 1009.2 |
| 20260902152917 | 62 | 65 | 1.0 | 3.0 | 0.00 | 0.00 | 0.00 | 77 | 1009.2 |
| 20260902152434 | 62 | 53 | 0.0 | 3.0 | 0.00 | 0.00 | 0.00 | 77 | 1009.3 |
| 20260902151932 | 62 | 113 | 1.0 | 3.0 | 0.00 | 0.00 | 0.00 | 77 | 1009.3 |
| 20260902151433 | 62 | 82 | 1.0 | 2.0 | 0.00 | 0.00 | 0.00 | 77 | 1009.4 |
| 20260902150930 | 61 | 91 | 1.0 | 3.0 | 0.00 | 0.00 | 0.00 | 77 | 1009.3 |
| 20260902150444 | 61 | 109 | 0.0 | 3.0 | 0.00 | 0.00 | 0.00 | 77 | 1009.4 |
| 20260902145921 | 61 | 131 | 0.0 | 2.0 | 0.00 | 0.00 | 0.00 | 77 | 1009.5 |
| 20260902145418 | 61 | 108 | 1.0 | 3.0 | 0.00 | 0.00 | 0.00 | 77 | 1009.5 |
| 20260902144937 | 61 | 83 | 0.0 | 3.0 | 0.00 | 0.00 | 0.00 | 77 | 1009.5 |
| 20260902144504 | 61 | 96 | 1.0 | 2.0 | 0.00 | 0.00 | 0.00 | 77 | 1009.6 |
| 20260902143941 | 61 | 160 | 0.0 | 4.0 | 0.00 | 0.00 | 0.00 | 78 | 1009.8 |
| 20260902143418 | 61 | 74 | 2.0 | 4.0 | 0.00 | 0.00 | 0.00 | 78 | 1009.6 |
| 20260902142937 | 61 | 167 | 0.0 | 2.0 | 0.00 | 0.00 | 0.00 | 78 | 1009.8 |
| 20260902142504 | 61 | 178 | 0.0 | 2.0 | 0.00 | 0.00 | 0.00 | 77 | 1010.0 |
| 20260902141940 | 61 | 105 | 0.0 | 2.0 | 0.00 | 0.00 | 0.00 | 78 | 1009.8 |
| 20260902141419 | 61 | 104 | 0.0 | 2.0 | 0.00 | 0.00 | 0.00 | 77 | 1010.0 |
| 20260902140933 | 61 | 46 | 0.0 | 1.0 | 0.00 | 0.00 | 0.00 | 77 | 1010.1 |
| 20260902140432 | 61 | 70 | 0.0 | 3.0 | 0.00 | 0.00 | 0.00 | 77 | 1010.2 |
| 20260902135929 | 61 | 67 | 2.0 | 3.0 | 0.00 | 0.00 | 0.00 | 76 | 1010.2 |
| 20260902135457 | 61 | 99 | 1.0 | 3.0 | 0.00 | 0.00 | 0.00 | 77 | 1010.2 |
| 20260902134931 | 61 | 78 | 2.0 | 3.0 | 0.00 | 0.00 | 0.00 | 77 | 1010.3 |
| 20260902134441 | 61 | 120 | 1.0 | 2.0 | 0.00 | 0.00 | 0.00 | 76 | 1010.4 |
| 20260902133926 | 61 | 96 | 0.0 | 1.0 | 0.00 | 0.00 | 0.00 | 76 | 1010.5 |
| 20260902133424 | 61 | 75 | 0.0 | 1.0 | 0.00 | 0.00 | 0.00 | 76 | 1010.5 |
| 20260902132918 | 61 | 75 | 0.0 | 1.0 | 0.00 | 0.00 | 0.00 | 76 | 1010.6 |
| 20260902132432 | 61 | 82 | 0.0 | 2.0 | 0.00 | 0.00 | 0.00 | 76 | 1010.5 |
| 20260902131930 | 61 | 63 | 0.0 | 1.0 | 0.00 | 0.00 | 0.00 | 76 | 1010.6 |
| 20260902131430 | 61 | 63 | 0.0 | 1.0 | 0.00 | 0.00 | 0.00 | 76 | 1010.8 |
| 20260902130925 | 61 | 51 | 0.0 | 2.0 | 0.00 | 0.00 | 0.00 | 77 | 1010.9 |
| 20260902130436 | 61 | 51 | 0.0 | 2.0 | 0.00 | 0.00 | 0.00 | 77 | 1010.8 |
| 20260902125943 | 60 | 20 | 0.0 | 0.0 | 0.00 | 0.00 | 0.00 | 77 | 1010.9 |
| 20260902125441 | 60 | 321 | 0.0 | 0.0 | 0.00 | 0.00 | 0.00 | 78 | 1010.9 |
| 20260902124937 | 60 | 259 | 0.0 | 0.0 | 0.00 | 0.00 | 0.00 | 78 | 1011.0 |
| 20260902124436 | 60 | 259 | 0.0 | 1.0 | 0.00 | 0.00 | 0.00 | 79 | 1011.0 |
| 20260902123954 | 60 | 259 | 0.0 | 1.0 | 0.00 | 0.00 | 0.00 | 79 | 1011.1 |
| 20260902123441 | 60 | 259 | 0.0 | 0.0 | 0.00 | 0.00 | 0.00 | 79 | 1011.3 |
| 20260902122936 | 60 | 259 | 0.0 | 0.0 | 0.00 | 0.00 | 0.00 | 79 | 1011.2 |
| 20260902122429 | 60 | 259 | 0.0 | 1.0 | 0.00 | 0.00 | 0.00 | 79 | 1011.4 |
| 20260902121927 | 60 | 259 | 0.0 | 1.0 | 0.00 | 0.00 | 0.00 | 80 | 1011.4 |
| 20260902121423 | 60 | 259 | 0.0 | 1.0 | 0.00 | 0.00 | 0.00 | 80 | 1011.4 |
| 20260902120943 | 60 | 259 | 0.0 | 0.0 | 0.00 | 0.00 | 0.00 | 80 | 1011.5 |
| 20260902120442 | 60 | 259 | 0.0 | 1.0 | 0.00 | 0.00 | 0.00 | 80 | 1011.6 |
| 20260902115918 | 60 | 259 | 0.0 | 2.0 | 0.00 | 0.00 | 0.00 | 80 | 1011.7 |
| 20260902115457 | 60 | 171 | 0.0 | 2.0 | 0.00 | 0.00 | 0.00 | 80 | 1011.7 |
| 20260902114941 | 60 | 93 | 0.0 | 1.0 | 0.00 | 0.00 | 0.00 | 81 | 1011.7 |
| 20260902114457 | 60 | 94 | 0.0 | 3.0 | 0.00 | 0.00 | 0.00 | 81 | 1011.8 |
| 20260902113927 | 60 | 72 | 1.0 | 3.0 | 0.00 | 0.00 | 0.00 | 81 | 1011.8 |
| 20260902113435 | 60 | 257 | 0.0 | 0.0 | 0.00 | 0.00 | 0.00 | 82 | 1011.8 |
| 20260902112933 | 60 | 256 | 0.0 | 0.0 | 0.00 | 0.00 | 0.00 | 81 | 1012.0 |
| 20260902112430 | 60 | 114 | 0.0 | 0.0 | 0.00 | 0.00 | 0.00 | 81 | 1011.9 |
| 20260902111950 | 60 | 113 | 0.0 | 0.0 | 0.00 | 0.00 | 0.00 | 81 | 1012.0 |
| 20260902111435 | 60 | 114 | 0.0 | 0.0 | 0.00 | 0.00 | 0.00 | 81 | 1012.0 |
| 20260902110933 | 60 | 113 | 0.0 | 0.0 | 0.00 | 0.00 | 0.00 | 80 | 1012.1 |
| 20260902110440 | 60 | 210 | 0.0 | 0.0 | 0.00 | 0.00 | 0.00 | 81 | 1012.1 |
| 20260902105937 | 60 | 83 | 0.0 | 0.0 | 0.00 | 0.00 | 0.00 | 81 | 1012.2 |
| 20260902105430 | 60 | 83 | 0.0 | 0.0 | 0.00 | 0.00 | 0.00 | 80 | 1012.1 |
| 20260902104927 | 60 | 83 | 0.0 | 0.0 | 0.00 | 0.00 | 0.00 | 81 | 1012.2 |
| 20260902104426 | 60 | 180 | 0.0 | 0.0 | 0.00 | 0.00 | 0.00 | 81 | 1012.3 |
| 20260902103945 | 60 | 127 | 0.0 | 0.0 | 0.00 | 0.00 | 0.00 | 81 | 1012.3 |
| 20260902103443 | 60 | 129 | 0.0 | 0.0 | 0.00 | 0.00 | 0.00 | 81 | 1012.4 |
| 20260902102942 | 60 | 129 | 0.0 | 0.0 | 0.00 | 0.00 | 0.00 | 81 | 1012.5 |
| 20260902102506 | 60 | 128 | 0.0 | 0.0 | 0.00 | 0.00 | 0.00 | 81 | 1012.3 |
| 20260902101922 | 60 | 128 | 0.0 | 0.0 | 0.00 | 0.00 | 0.00 | 80 | 1012.4 |
| 20260902101419 | 60 | 128 | 0.0 | 0.0 | 0.00 | 0.00 | 0.00 | 80 | 1012.5 |
| 20260902100936 | 60 | 128 | 0.0 | 0.0 | 0.00 | 0.00 | 0.00 | 80 | 1012.5 |
| 20260902100432 | 60 | 128 | 0.0 | 0.0 | 0.00 | 0.00 | 0.00 | 80 | 1012.5 |
| 20260902095930 | 60 | 128 | 0.0 | 1.0 | 0.00 | 0.00 | 0.00 | 80 | 1012.4 |
| 20260902095438 | 60 | 128 | 0.0 | 1.0 | 0.00 | 0.00 | 0.00 | 81 | 1012.5 |
| 20260902094932 | 60 | 129 | 0.0 | 1.0 | 0.00 | 0.00 | 0.00 | 81 | 1012.6 |
| 20260902094423 | 59 | 243 | 0.0 | 0.0 | 0.00 | 0.00 | 0.00 | 81 | 1012.7 |
| 20260902093944 | 59 | 243 | 0.0 | 0.0 | 0.00 | 0.00 | 0.00 | 81 | 1012.8 |
| 20260902093442 | 59 | 243 | 0.0 | 0.0 | 0.00 | 0.00 | 0.00 | 82 | 1012.8 |
| 20260902092940 | 59 | 242 | 0.0 | 1.0 | 0.00 | 0.00 | 0.00 | 82 | 1013.0 |
| 20260902092437 | 59 | 243 | 0.0 | 1.0 | 0.00 | 0.00 | 0.00 | 82 | 1013.0 |
| 20260902091935 | 59 | 243 | 0.0 | 0.0 | 0.00 | 0.00 | 0.00 | 83 | 1013.0 |
| 20260902091422 | 59 | 242 | 0.0 | 1.0 | 0.00 | 0.00 | 0.00 | 82 | 1013.1 |
| 20260902090936 | 59 | 242 | 0.0 | 1.0 | 0.00 | 0.00 | 0.00 | 82 | 1013.1 |
| 20260902090435 | 59 | 242 | 0.0 | 1.0 | 0.00 | 0.00 | 0.00 | 82 | 1013.1 |
| 20260902090001 | 60 | 243 | 0.0 | 1.0 | 0.00 | 0.00 | 0.00 | 81 | 1013.1 |
| 20260902085437 | 60 | 220 | 0.0 | 1.0 | 0.00 | 0.00 | 0.00 | 81 | 1013.2 |
| 20260902084936 | 60 | 216 | 0.0 | 1.0 | 0.00 | 0.00 | 0.00 | 81 | 1013.2 |
| 20260902084453 | 60 | 252 | 0.0 | 3.0 | 0.00 | 0.00 | 0.00 | 81 | 1013.3 |
| 20260902083940 | 60 | 155 | 1.0 | 3.0 | 0.00 | 0.00 | 0.00 | 82 | 1013.2 |
| 20260902083438 | 60 | 290 | 0.0 | 2.0 | 0.00 | 0.00 | 0.00 | 82 | 1013.2 |
| 20260902082934 | 60 | 245 | 0.0 | 2.0 | 0.00 | 0.00 | 0.00 | 82 | 1013.3 |
| 20260902082428 | 60 | 226 | 0.0 | 2.0 | 0.00 | 0.00 | 0.00 | 82 | 1013.3 |
| 20260902081926 | 60 | 240 | 0.0 | 0.0 | 0.00 | 0.00 | 0.00 | 83 | 1013.3 |
| 20260902081433 | 60 | 243 | 0.0 | 1.0 | 0.00 | 0.00 | 0.00 | 82 | 1013.3 |
| 20260902080950 | 60 | 243 | 0.0 | 1.0 | 0.00 | 0.00 | 0.00 | 82 | 1013.3 |
| 20260902080417 | 60 | 242 | 0.0 | 0.0 | 0.00 | 0.00 | 0.00 | 81 | 1013.2 |
| 20260902075944 | 61 | 242 | 0.0 | 0.0 | 0.00 | 0.00 | 0.00 | 80 | 1013.1 |
| 20260902075424 | 61 | 242 | 0.0 | 0.0 | 0.00 | 0.00 | 0.00 | 80 | 1013.2 |
| 20260902074922 | 61 | 242 | 0.0 | 0.0 | 0.00 | 0.00 | 0.00 | 80 | 1013.2 |
| 20260902074420 | 61 | 242 | 0.0 | 0.0 | 0.00 | 0.00 | 0.00 | 79 | 1013.2 |
| 20260902073917 | 61 | 242 | 0.0 | 0.0 | 0.00 | 0.00 | 0.00 | 79 | 1013.2 |
| 20260902073446 | 62 | 242 | 0.0 | 0.0 | 0.00 | 0.00 | 0.00 | 79 | 1013.3 |
| 20260902072918 | 62 | 242 | 0.0 | 1.0 | 0.00 | 0.00 | 0.00 | 79 | 1013.4 |
| 20260902072434 | 62 | 242 | 0.0 | 1.0 | 0.00 | 0.00 | 0.00 | 79 | 1013.4 |
| 20260902072001 | 62 | 219 | 0.0 | 1.0 | 0.00 | 0.00 | 0.00 | 78 | 1013.4 |
| 20260902071457 | 62 | 219 | 0.0 | 1.0 | 0.00 | 0.00 | 0.00 | 78 | 1013.5 |
| 20260902071005 | 62 | 238 | 0.0 | 1.0 | 0.00 | 0.00 | 0.00 | 78 | 1013.6 |
| 20260902070441 | 62 | 246 | 0.0 | 0.0 | 0.00 | 0.00 | 0.00 | 78 | 1013.6 |
| 20260902065936 | 62 | 247 | 0.0 | 0.0 | 0.00 | 0.00 | 0.00 | 78 | 1013.6 |
| 20260902065434 | 62 | 237 | 0.0 | 1.0 | 0.00 | 0.00 | 0.00 | 78 | 1013.6 |
| 20260902064926 | 62 | 227 | 0.0 | 1.0 | 0.00 | 0.00 | 0.00 | 78 | 1013.7 |
| 20260902064443 | 62 | 227 | 0.0 | 1.0 | 0.00 | 0.00 | 0.00 | 78 | 1013.7 |
| 20260902063944 | 62 | 227 | 0.0 | 1.0 | 0.00 | 0.00 | 0.00 | 78 | 1013.7 |
| 20260902063421 | 62 | 227 | 0.0 | 1.0 | 0.00 | 0.00 | 0.00 | 78 | 1013.7 |
| 20260902062939 | 62 | 210 | 0.0 | 1.0 | 0.00 | 0.00 | 0.00 | 78 | 1013.8 |
| 20260902062445 | 62 | 210 | 0.0 | 1.0 | 0.00 | 0.00 | 0.00 | 77 | 1013.7 |
| 20260902061924 | 62 | 250 | 0.0 | 2.0 | 0.00 | 0.00 | 0.00 | 77 | 1013.6 |
| 20260902061441 | 62 | 244 | 0.0 | 2.0 | 0.00 | 0.00 | 0.00 | 77 | 1013.7 |
| 20260902060948 | 62 | 239 | 0.0 | 2.0 | 0.00 | 0.00 | 0.00 | 76 | 1013.6 |
| 20260902060420 | 62 | 223 | 0.0 | 2.0 | 0.00 | 0.00 | 0.00 | 76 | 1013.6 |
| 20260902055917 | 63 | 245 | 0.0 | 1.0 | 0.00 | 0.00 | 0.00 | 76 | 1013.6 |
| 20260902055434 | 63 | 245 | 0.0 | 1.0 | 0.00 | 0.00 | 0.00 | 75 | 1013.7 |
| 20260902055002 | 63 | 249 | 0.0 | 2.0 | 0.00 | 0.00 | 0.00 | 75 | 1013.9 |
| 20260902054440 | 63 | 253 | 1.0 | 3.0 | 0.00 | 0.00 | 0.00 | 75 | 1013.9 |
| 20260902053958 | 63 | 247 | 0.0 | 3.0 | 0.00 | 0.00 | 0.00 | 75 | 1013.9 |
| 20260902053434 | 63 | 250 | 0.0 | 1.0 | 0.00 | 0.00 | 0.00 | 75 | 1013.9 |
| 20260902052940 | 63 | 224 | 0.0 | 1.0 | 0.00 | 0.00 | 0.00 | 75 | 1014.0 |
| 20260902052437 | 63 | 226 | 0.0 | 1.0 | 0.00 | 0.00 | 0.00 | 75 | 1014.0 |
| 20260902051929 | 63 | 240 | 0.0 | 2.0 | 0.00 | 0.00 | 0.00 | 75 | 1013.9 |
| 20260902051434 | 63 | 260 | 1.0 | 2.0 | 0.00 | 0.00 | 0.00 | 75 | 1013.9 |
| 20260902050930 | 63 | 233 | 0.0 | 1.0 | 0.00 | 0.00 | 0.00 | 74 | 1013.9 |
| 20260902050428 | 63 | 228 | 0.0 | 1.0 | 0.00 | 0.00 | 0.00 | 74 | 1013.9 |
| 20260902045917 | 63 | 227 | 0.0 | 1.0 | 0.00 | 0.00 | 0.00 | 74 | 1013.9 |
| 20260902045444 | 64 | 240 | 0.0 | 2.0 | 0.00 | 0.00 | 0.00 | 74 | 1013.9 |
| 20260902044944 | 64 | 240 | 1.0 | 2.0 | 0.00 | 0.00 | 0.00 | 74 | 1013.8 |
| 20260902044421 | 64 | 236 | 0.0 | 2.0 | 0.00 | 0.00 | 0.00 | 74 | 1013.9 |
| 20260902043946 | 64 | 248 | 0.0 | 2.0 | 0.00 | 0.00 | 0.00 | 74 | 1013.8 |
| 20260902043422 | 64 | 248 | 0.0 | 1.0 | 0.00 | 0.00 | 0.00 | 74 | 1013.8 |
| 20260902042934 | 64 | 242 | 0.0 | 2.0 | 0.00 | 0.00 | 0.00 | 74 | 1013.8 |
| 20260902042433 | 64 | 217 | 0.0 | 4.0 | 0.00 | 0.00 | 0.00 | 74 | 1013.8 |
| 20260902041930 | 64 | 224 | 1.0 | 4.0 | 0.00 | 0.00 | 0.00 | 74 | 1013.7 |
| 20260902041457 | 64 | 250 | 0.0 | 2.0 | 0.00 | 0.00 | 0.00 | 74 | 1013.7 |
| 20260902040952 | 64 | 243 | 0.0 | 1.0 | 0.00 | 0.00 | 0.00 | 74 | 1013.8 |
| 20260902040429 | 64 | 262 | 0.0 | 1.0 | 0.00 | 0.00 | 0.00 | 74 | 1013.7 |
| 20260902035940 | 64 | 247 | 0.0 | 1.0 | 0.00 | 0.00 | 0.00 | 74 | 1013.6 |
| 20260902035426 | 64 | 247 | 0.0 | 2.0 | 0.00 | 0.00 | 0.00 | 74 | 1013.6 |
| 20260902034920 | 64 | 229 | 0.0 | 3.0 | 0.00 | 0.00 | 0.00 | 74 | 1013.7 |
| 20260902034435 | 64 | 224 | 0.0 | 3.0 | 0.00 | 0.00 | 0.00 | 74 | 1013.6 |
| 20260902034002 | 64 | 269 | 0.0 | 2.0 | 0.00 | 0.00 | 0.00 | 74 | 1013.6 |
| 20260902033439 | 64 | 243 | 1.0 | 3.0 | 0.00 | 0.00 | 0.00 | 74 | 1013.5 |
| 20260902032917 | 64 | 236 | 1.0 | 3.0 | 0.00 | 0.00 | 0.00 | 74 | 1013.5 |
| 20260902032435 | 64 | 247 | 1.0 | 3.0 | 0.00 | 0.00 | 0.00 | 73 | 1013.4 |
| 20260902031934 | 64 | 238 | 1.0 | 3.0 | 0.00 | 0.00 | 0.00 | 73 | 1013.5 |
| 20260902031502 | 65 | 243 | 1.0 | 2.0 | 0.00 | 0.00 | 0.00 | 73 | 1013.4 |
| 20260902030920 | 65 | 270 | 1.0 | 4.0 | 0.00 | 0.00 | 0.00 | 73 | 1013.5 |
| 20260902030437 | 65 | 66 | 2.0 | 4.0 | 0.00 | 0.00 | 0.00 | 72 | 1013.5 |
| 20260902025950 | 65 | 243 | 1.0 | 4.0 | 0.00 | 0.00 | 0.00 | 72 | 1013.5 |
| 20260902025435 | 65 | 210 | 1.0 | 3.0 | 0.00 | 0.00 | 0.00 | 72 | 1013.5 |
| 20260902024932 | 65 | 236 | 1.0 | 5.0 | 0.00 | 0.00 | 0.00 | 71 | 1013.5 |
| 20260902024428 | 65 | 264 | 2.0 | 5.0 | 0.00 | 0.00 | 0.00 | 71 | 1013.5 |
| 20260902023920 | 66 | 275 | 2.0 | 5.0 | 0.00 | 0.00 | 0.00 | 71 | 1013.4 |
| 20260902023422 | 66 | 231 | 1.0 | 5.0 | 0.00 | 0.00 | 0.00 | 70 | 1013.3 |
| 20260902022919 | 66 | 221 | 1.0 | 3.0 | 0.00 | 0.00 | 0.00 | 70 | 1013.3 |
| 20260902022446 | 66 | 241 | 1.0 | 3.0 | 0.00 | 0.00 | 0.00 | 70 | 1013.3 |
| 20260902021944 | 66 | 245 | 2.0 | 4.0 | 0.00 | 0.00 | 0.00 | 69 | 1013.3 |
| 20260902021437 | 66 | 249 | 2.0 | 4.0 | 0.00 | 0.00 | 0.00 | 69 | 1013.1 |
| 20260902020956 | 66 | 238 | 2.0 | 4.0 | 0.00 | 0.00 | 0.00 | 69 | 1013.1 |
| 20260902020432 | 67 | 88 | 2.0 | 4.0 | 0.00 | 0.00 | 0.00 | 69 | 1013.1 |
| 20260902015958 | 67 | 252 | 2.0 | 4.0 | 0.00 | 0.00 | 0.00 | 68 | 1013.2 |
| 20260902015435 | 67 | 265 | 2.0 | 5.0 | 0.00 | 0.00 | 0.00 | 68 | 1013.1 |
| 20260902014932 | 67 | 240 | 2.0 | 5.0 | 0.00 | 0.00 | 0.00 | 68 | 1013.1 |
| 20260902014500 | 67 | 238 | 1.0 | 4.0 | 0.00 | 0.00 | 0.00 | 67 | 1013.0 |
| 20260902013936 | 67 | 227 | 1.0 | 4.0 | 0.00 | 0.00 | 0.00 | 67 | 1013.0 |
| 20260902013433 | 67 | 244 | 1.0 | 3.0 | 0.00 | 0.00 | 0.00 | 66 | 1013.1 |
| 20260902012930 | 67 | 266 | 1.0 | 4.0 | 0.00 | 0.00 | 0.00 | 66 | 1013.1 |
| 20260902012423 | 67 | 245 | 2.0 | 4.0 | 0.00 | 0.00 | 0.00 | 66 | 1013.0 |
| 20260902011942 | 67 | 237 | 2.0 | 4.0 | 0.00 | 0.00 | 0.00 | 65 | 1013.0 |
| 20260902011440 | 67 | 252 | 1.0 | 4.0 | 0.00 | 0.00 | 0.00 | 65 | 1013.0 |
| 20260902011004 | 68 | 269 | 2.0 | 5.0 | 0.00 | 0.00 | 0.00 | 64 | 1012.9 |
| 20260902010440 | 68 | 202 | 2.0 | 5.0 | 0.00 | 0.00 | 0.00 | 64 | 1013.0 |
| 20260902005918 | 68 | 254 | 2.0 | 5.0 | 0.00 | 0.00 | 0.00 | 63 | 1012.9 |
| 20260902005446 | 68 | 229 | 2.0 | 5.0 | 0.00 | 0.00 | 0.00 | 64 | 1012.8 |
| 20260902004942 | 68 | 247 | 2.0 | 6.0 | 0.00 | 0.00 | 0.00 | 64 | 1012.8 |
| 20260902004419 | 69 | 271 | 3.0 | 5.0 | 0.00 | 0.00 | 0.00 | 63 | 1012.7 |
| 20260902003933 | 69 | 155 | 2.0 | 6.0 | 0.00 | 0.00 | 0.00 | 63 | 1012.7 |
| 20260902003432 | 69 | 175 | 2.0 | 6.0 | 0.00 | 0.00 | 0.00 | 63 | 1012.7 |
| 20260902002939 | 69 | 233 | 2.0 | 5.0 | 0.00 | 0.00 | 0.00 | 62 | 1012.6 |
| 20260902002437 | 70 | 221 | 2.0 | 5.0 | 0.00 | 0.00 | 0.00 | 62 | 1012.6 |
| 20260902001955 | 70 | 264 | 2.0 | 5.0 | 0.00 | 0.00 | 0.00 | 62 | 1012.6 |
| 20260902001431 | 70 | 223 | 1.0 | 4.0 | 0.00 | 0.00 | 0.00 | 63 | 1012.6 |
| 20260902000933 | 70 | 225 | 2.0 | 5.0 | 0.00 | 0.00 | 0.00 | 63 | 1012.5 |
| 20260902000430 | 70 | 266 | 2.0 | 5.0 | 0.00 | 0.00 | 0.00 | 63 | 1012.5 |
| 20260901235948 | 70 | 57 | 1.0 | 3.0 | 0.00 | 0.00 | 0.00 | 63 | 1012.5 |
| 20260901235424 | 70 | 238 | 1.0 | 3.0 | 0.00 | 0.00 | 0.00 | 63 | 1012.6 |
| 20260901234943 | 70 | 277 | 0.0 | 5.0 | 0.00 | 0.00 | 0.00 | 63 | 1012.6 |
| 20260901234440 | 70 | 283 | 1.0 | 7.0 | 0.00 | 0.00 | 0.00 | 63 | 1012.6 |
| 20260901233939 | 70 | 242 | 2.0 | 7.0 | 0.00 | 0.00 | 0.00 | 63 | 1012.6 |
| 20260901233418 | 70 | 229 | 1.0 | 4.0 | 0.00 | 0.00 | 0.00 | 63 | 1012.6 |
| 20260901232936 | 70 | 255 | 2.0 | 4.0 | 0.00 | 0.00 | 0.00 | 63 | 1012.8 |
| 20260901232434 | 70 | 225 | 1.0 | 4.0 | 0.00 | 0.00 | 0.00 | 62 | 1012.8 |
| 20260901231932 | 70 | 233 | 2.0 | 4.0 | 0.00 | 0.00 | 0.00 | 62 | 1012.9 |
| 20260901231439 | 70 | 227 | 2.0 | 4.0 | 0.00 | 0.00 | 0.00 | 63 | 1012.9 |
| 20260901230935 | 70 | 242 | 1.0 | 5.0 | 0.00 | 0.00 | 0.00 | 63 | 1012.9 |
| 20260901230432 | 70 | 224 | 2.0 | 6.0 | 0.00 | 0.00 | 0.00 | 63 | 1012.9 |
| 20260901225929 | 70 | 229 | 2.0 | 4.0 | 0.00 | 0.00 | 0.00 | 62 | 1013.0 |
| 20260901225423 | 70 | 242 | 1.0 | 6.0 | 0.00 | 0.00 | 0.00 | 62 | 1012.9 |
| 20260901224943 | 70 | 274 | 2.0 | 6.0 | 0.00 | 0.00 | 0.00 | 61 | 1013.0 |